Time;durP1;ratioP1;P1;durP2;ratioP2;P2;SDS_P1;SDS_P2;PMS_P1;PMS_P2;Temp;Humidity;BMP_temperature;BMP_pressure;BME280_temperature;BME280_humidity;BME280_pressure;Samples;Min_cycle;Max_cycle;Signal;HPM_P1;HPM_P2
2021/01/18 00:01:35;;;;;;;55.63;23.00;;;;;;;;;;5051301;28;20428;-53
2021/01/18 00:04:01;;;;;;;59.13;24.55;;;;;;;;;;5053074;28;20512;-51
2021/01/18 00:06:27;;;;;;;64.80;24.80;;;;;;;;;;5053459;28;20194;-52
2021/01/18 00:08:54;;;;;;;57.57;23.70;;;;;;;;;;5053527;28;20400;-52
2021/01/18 00:11:21;;;;;;;54.35;22.80;;;;;;;;;;5053620;28;20408;-51
2021/01/18 00:13:47;;;;;;;56.30;24.10;;;;;;;;;;5052277;28;20235;-53
2021/01/18 00:16:17;;;;;;;55.08;24.77;;;;;;;;;;5052628;28;20198;-52
2021/01/18 00:18:43;;;;;;;64.13;24.38;;;;;;;;;;5053237;28;20177;-52
2021/01/18 00:21:09;;;;;;;62.87;23.87;;;;;;;;;;5052032;28;20247;-53
2021/01/18 00:23:42;;;;;;;63.00;25.05;;;;;;;;;;5053165;28;20876;-52
2021/01/18 00:26:08;;;;;;;61.83;24.90;;;;;;;;;;5052808;28;20898;-52
2021/01/18 00:28:35;;;;;;;65.72;25.35;;;;;;;;;;5052820;28;20749;-52
2021/01/18 00:31:01;;;;;;;58.65;24.50;;;;;;;;;;5052059;28;21161;-51
2021/01/18 00:33:27;;;;;;;59.90;25.52;;;;;;;;;;5052731;28;20600;-52
2021/01/18 00:35:53;;;;;;;66.78;25.98;;;;;;;;;;5052573;28;20230;-52
2021/01/18 00:38:19;;;;;;;57.15;26.52;;;;;;;;;;5052903;28;20189;-51
2021/01/18 00:40:45;;;;;;;59.90;28.10;;;;;;;;;;5053193;28;20171;-52
2021/01/18 00:43:11;;;;;;;72.80;27.15;;;;;;;;;;5053114;28;20177;-52
2021/01/18 00:45:37;;;;;;;60.00;26.80;;;;;;;;;;5052922;28;20197;-52
2021/01/18 00:48:03;;;;;;;64.10;26.57;;;;;;;;;;5052818;28;20421;-51
2021/01/18 00:50:30;;;;;;;67.97;27.45;;;;;;;;;;5052371;28;20406;-51
2021/01/18 00:52:59;;;;;;;22.10;11.25;;;;;;;;;;5052408;28;20186;-53
2021/01/18 00:55:26;;;;;;;18.73;9.10;;;;;;;;;;5051757;28;20755;-53
2021/01/18 00:57:52;;;;;;;17.38;7.57;;;;;;;;;;5052458;28;20166;-50
2021/01/18 01:00:19;;;;;;;12.85;6.88;;;;;;;;;;5052241;28;20179;-52
2021/01/18 01:02:47;;;;;;;18.58;6.32;;;;;;;;;;5051147;28;20599;-50
2021/01/18 01:05:14;;;;;;;9.73;5.70;;;;;;;;;;5051959;28;20663;-52
2021/01/18 01:07:45;;;;;;;17.42;5.50;;;;;;;;;;5052230;28;20598;-52
2021/01/18 01:10:12;;;;;;;8.80;4.85;;;;;;;;;;5051968;28;20164;-53
2021/01/18 01:12:38;;;;;;;16.20;5.78;;;;;;;;;;5051852;28;20667;-52
2021/01/18 01:15:05;;;;;;;11.25;4.60;;;;;;;;;;5051788;28;20203;-52
2021/01/18 01:17:31;;;;;;;12.70;4.60;;;;;;;;;;5051434;28;20174;-52
2021/01/18 01:19:57;;;;;;;5.68;4.30;;;;;;;;;;5051845;28;20175;-53
2021/01/18 01:22:23;;;;;;;12.38;5.10;;;;;;;;;;5051493;28;20167;-53
2021/01/18 01:24:49;;;;;;;17.63;5.40;;;;;;;;;;5051692;28;20193;-52
2021/01/18 01:27:15;;;;;;;22.33;6.63;;;;;;;;;;5051397;28;20767;-51
2021/01/18 01:29:41;;;;;;;20.83;7.67;;;;;;;;;;5051628;28;20890;-52
2021/01/18 01:32:07;;;;;;;24.92;7.18;;;;;;;;;;5050609;28;20431;-52
2021/01/18 01:34:33;;;;;;;21.17;8.50;;;;;;;;;;5051536;28;20295;-52
2021/01/18 01:36:59;;;;;;;13.70;8.30;;;;;;;;;;5051618;28;20533;-52
2021/01/18 01:39:25;;;;;;;22.50;8.93;;;;;;;;;;5051564;28;20398;-52
2021/01/18 01:41:51;;;;;;;16.60;9.23;;;;;;;;;;5051343;28;20164;-52
2021/01/18 01:44:17;;;;;;;18.20;8.83;;;;;;;;;;5051173;28;20423;-53
2021/01/18 01:46:43;;;;;;;20.10;9.40;;;;;;;;;;5051023;28;20434;-53
2021/01/18 01:49:09;;;;;;;16.77;9.27;;;;;;;;;;5051122;28;20400;-51
2021/01/18 01:51:35;;;;;;;28.97;10.73;;;;;;;;;;5051238;28;20423;-52
2021/01/18 01:54:02;;;;;;;24.00;10.82;;;;;;;;;;5051103;28;20411;-53
2021/01/18 01:56:28;;;;;;;21.63;11.80;;;;;;;;;;5050798;28;20294;-52
2021/01/18 01:58:54;;;;;;;33.33;15.10;;;;;;;;;;5051179;28;20627;-52
2021/01/18 02:01:21;;;;;;;30.08;15.27;;;;;;;;;;5049811;28;20419;-52
2021/01/18 02:03:49;;;;;;;37.33;17.67;;;;;;;;;;5050320;28;20169;-51
2021/01/18 02:06:15;;;;;;;38.97;18.10;;;;;;;;;;5049963;28;20316;-51
2021/01/18 02:08:42;;;;;;;45.03;20.83;;;;;;;;;;5050730;28;20171;-52
2021/01/18 02:11:09;;;;;;;45.70;21.47;;;;;;;;;;5050806;28;20215;-52
2021/01/18 02:14:04;;;;;;;52.67;23.52;;;;;;;;;;5050590;28;20451;-51
2021/01/18 02:16:31;;;;;;;43.58;22.80;;;;;;;;;;4979366;28;20191;-52
2021/01/18 02:19:16;;;;;;;47.58;26.67;;;;;;;;;;5050917;28;20531;-52
2021/01/18 02:22:01;;;;;;;51.75;26.58;;;;;;;;;;5050904;28;20231;-52
2021/01/18 02:24:36;;;;;;;59.15;25.80;;;;;;;;;;5050641;28;20685;-52
2021/01/18 02:27:21;;;;;;;42.97;21.55;;;;;;;;;;5050966;28;20231;-52
2021/01/18 02:29:53;;;;;;;45.55;18.95;;;;;;;;;;5050893;28;20174;-53
2021/01/18 02:32:28;;;;;;;36.83;18.25;;;;;;;;;;5049931;28;20212;-53
2021/01/18 02:35:19;;;;;;;45.90;20.30;;;;;;;;;;5050655;28;20204;-51
2021/01/18 02:38:10;;;;;;;41.58;19.50;;;;;;;;;;5045951;28;20331;-51
2021/01/18 02:40:42;;;;;;;40.03;20.90;;;;;;;;;;5050489;28;20641;-53
2021/01/18 02:43:12;;;;;;;38.75;19.30;;;;;;;;;;5050949;28;20179;-49
2021/01/18 02:45:38;;;;;;;32.42;17.00;;;;;;;;;;5054128;28;20835;-52
2021/01/18 02:48:05;;;;;;;41.97;18.00;;;;;;;;;;5054541;28;20170;-54
2021/01/18 02:50:32;;;;;;;44.33;17.83;;;;;;;;;;5054308;28;20202;-50
2021/01/18 02:52:59;;;;;;;29.27;16.40;;;;;;;;;;5054431;28;20218;-49
2021/01/18 02:55:25;;;;;;;40.67;16.08;;;;;;;;;;5053692;28;20205;-50
2021/01/18 02:57:51;;;;;;;28.38;15.15;;;;;;;;;;5054302;28;20683;-50
2021/01/18 03:00:25;;;;;;;34.60;12.95;;;;;;;;;;5054157;28;20166;-49
2021/01/18 03:02:55;;;;;;;24.58;13.55;;;;;;;;;;5034304;28;20164;-50
2021/01/18 03:05:25;;;;;;;31.17;16.00;;;;;;;;;;5033823;28;20554;-49
2021/01/18 03:07:56;;;;;;;34.08;14.98;;;;;;;;;;5034293;28;20191;-50
2021/01/18 03:10:31;;;;;;;35.30;15.45;;;;;;;;;;5034261;28;20189;-49
2021/01/18 03:13:17;;;;;;;37.58;14.80;;;;;;;;;;5033982;28;20220;-49
2021/01/18 03:15:45;;;;;;;41.45;17.73;;;;;;;;;;5033711;28;20199;-50
2021/01/18 03:18:13;;;;;;;36.67;17.92;;;;;;;;;;5033850;28;20173;-52
2021/01/18 03:20:39;;;;;;;42.65;17.30;;;;;;;;;;5033970;28;20246;-50
2021/01/18 03:23:07;;;;;;;35.50;17.15;;;;;;;;;;5015949;28;20176;-49
2021/01/18 03:25:33;;;;;;;32.10;17.67;;;;;;;;;;5033474;28;20214;-49
2021/01/18 03:27:59;;;;;;;50.55;19.00;;;;;;;;;;5033587;28;20205;-51
2021/01/18 03:30:27;;;;;;;33.40;17.67;;;;;;;;;;5034212;28;20708;-52
2021/01/18 03:32:54;;;;;;;41.47;20.98;;;;;;;;;;5053337;28;20452;-49
2021/01/18 03:35:21;;;;;;;47.90;22.05;;;;;;;;;;5053242;28;20196;-52
2021/01/18 03:37:54;;;;;;;44.33;22.23;;;;;;;;;;5053575;28;20172;-50
2021/01/18 03:40:20;;;;;;;50.78;23.02;;;;;;;;;;5053409;28;20170;-49
2021/01/18 03:42:51;;;;;;;52.42;24.67;;;;;;;;;;5053405;28;20169;-52
2021/01/18 03:45:17;;;;;;;58.13;25.58;;;;;;;;;;5053117;28;20191;-50
2021/01/18 03:47:44;;;;;;;55.23;26.17;;;;;;;;;;5053393;28;20167;-52
2021/01/18 03:50:11;;;;;;;75.15;26.92;;;;;;;;;;5053238;28;20403;-49
2021/01/18 03:52:37;;;;;;;55.72;25.58;;;;;;;;;;5053202;28;20538;-49
2021/01/18 03:55:03;;;;;;;61.87;27.83;;;;;;;;;;5052640;28;20235;-49
2021/01/18 03:57:29;;;;;;;69.32;29.17;;;;;;;;;;5035089;28;20402;-49
2021/01/18 03:59:55;;;;;;;61.97;28.03;;;;;;;;;;5052966;28;20570;-49
2021/01/18 04:02:23;;;;;;;53.90;25.90;;;;;;;;;;5052349;28;20792;-49
2021/01/18 04:04:49;;;;;;;70.10;26.70;;;;;;;;;;5053107;28;20417;-49
2021/01/18 04:07:15;;;;;;;58.97;28.07;;;;;;;;;;5034810;28;20551;-49
2021/01/18 04:09:42;;;;;;;50.67;26.23;;;;;;;;;;5053016;28;20885;-49
2021/01/18 04:12:08;;;;;;;60.45;27.73;;;;;;;;;;5052848;28;20404;-54
2021/01/18 04:14:35;;;;;;;47.33;25.47;;;;;;;;;;5051801;28;20311;-54
2021/01/18 04:17:03;;;;;;;46.05;25.17;;;;;;;;;;5052523;28;20886;-49
2021/01/18 04:19:29;;;;;;;46.28;23.02;;;;;;;;;;5053052;28;20181;-49
2021/01/18 04:21:55;;;;;;;44.47;22.83;;;;;;;;;;5052943;28;20172;-51
2021/01/18 04:24:20;;;;;;;42.23;21.97;;;;;;;;;;5052851;28;20525;-51
2021/01/18 04:26:48;;;;;;;56.30;24.00;;;;;;;;;;5052529;28;20399;-53
2021/01/18 04:29:14;;;;;;;44.60;22.67;;;;;;;;;;5052539;28;20407;-49
2021/01/18 04:31:41;;;;;;;41.90;21.80;;;;;;;;;;5051792;28;20258;-49
2021/01/18 04:34:07;;;;;;;44.30;22.85;;;;;;;;;;5052410;28;20509;-51
2021/01/18 04:36:37;;;;;;;56.50;25.13;;;;;;;;;;5052200;28;20200;-51
2021/01/18 04:39:04;;;;;;;50.08;25.35;;;;;;;;;;5052335;28;20228;-51
2021/01/18 04:41:30;;;;;;;50.75;26.13;;;;;;;;;;5052419;28;20169;-49
2021/01/18 04:43:56;;;;;;;54.25;26.50;;;;;;;;;;5052146;28;20167;-49
2021/01/18 04:46:23;;;;;;;52.10;26.90;;;;;;;;;;5052100;28;20176;-49
2021/01/18 04:48:49;;;;;;;62.35;29.42;;;;;;;;;;5052093;28;20408;-50
2021/01/18 04:51:16;;;;;;;53.97;26.63;;;;;;;;;;5052146;28;20176;-52
2021/01/18 04:53:47;;;;;;;63.35;30.08;;;;;;;;;;5052067;28;20429;-51
2021/01/18 04:56:22;;;;;;;72.35;29.90;;;;;;;;;;5052206;28;20255;-52
2021/01/18 04:59:10;;;;;;;65.05;29.98;;;;;;;;;;5051667;28;20165;-49
2021/01/18 05:01:41;;;;;;;69.60;33.17;;;;;;;;;;5050519;28;20193;-52
2021/01/18 05:04:12;;;;;;;69.72;32.92;;;;;;;;;;5051328;28;20202;-50
2021/01/18 05:06:45;;;;;;;65.30;31.20;;;;;;;;;;5050929;28;20516;-52
2021/01/18 05:09:27;;;;;;;59.60;30.08;;;;;;;;;;5051751;28;20167;-51
2021/01/18 05:11:53;;;;;;;67.63;33.45;;;;;;;;;;5051668;28;20809;-49
2021/01/18 05:14:19;;;;;;;65.32;31.50;;;;;;;;;;5051624;28;20188;-49
2021/01/18 05:16:47;;;;;;;56.90;28.08;;;;;;;;;;5050374;28;20188;-53
2021/01/18 05:19:14;;;;;;;70.07;27.83;;;;;;;;;;5051676;28;20692;-49
2021/01/18 05:21:41;;;;;;;55.97;28.23;;;;;;;;;;5051473;28;20679;-49
2021/01/18 05:24:07;;;;;;;57.15;29.27;;;;;;;;;;5051464;28;20558;-49
2021/01/18 05:26:33;;;;;;;51.33;27.23;;;;;;;;;;5051291;28;20659;-52
2021/01/18 05:28:59;;;;;;;50.47;26.90;;;;;;;;;;5051347;28;20173;-49
2021/01/18 05:31:28;;;;;;;53.30;26.45;;;;;;;;;;5051432;28;20982;-49
2021/01/18 05:33:55;;;;;;;59.40;26.85;;;;;;;;;;5051194;28;20181;-52
2021/01/18 05:36:37;;;;;;;47.42;25.63;;;;;;;;;;5050214;28;20216;-49
2021/01/18 05:39:12;;;;;;;51.85;28.33;;;;;;;;;;5051116;28;20168;-49
2021/01/18 05:41:38;;;;;;;49.80;27.75;;;;;;;;;;5051303;28;20297;-53
2021/01/18 05:44:05;;;;;;;44.95;25.73;;;;;;;;;;5051063;28;20173;-53
2021/01/18 05:46:32;;;;;;;51.58;25.90;;;;;;;;;;5050978;28;20170;-49
2021/01/18 05:49:05;;;;;;;42.25;25.65;;;;;;;;;;5051005;28;20699;-51
2021/01/18 05:51:32;;;;;;;54.38;27.92;;;;;;;;;;5051321;28;20279;-49
2021/01/18 05:54:01;;;;;;;53.58;27.20;;;;;;;;;;5050964;28;20173;-49
2021/01/18 05:56:27;;;;;;;50.97;26.88;;;;;;;;;;5050707;28;20729;-50
2021/01/18 05:58:54;;;;;;;58.25;28.73;;;;;;;;;;5051111;28;20168;-49
2021/01/18 06:01:42;;;;;;;46.65;24.77;;;;;;;;;;5049879;28;20179;-49
2021/01/18 06:04:12;;;;;;;51.08;28.77;;;;;;;;;;5031059;28;20190;-49
2021/01/18 06:06:38;;;;;;;51.08;27.02;;;;;;;;;;5030490;28;20193;-49
2021/01/18 06:09:04;;;;;;;48.60;25.67;;;;;;;;;;5030943;28;20637;-49
2021/01/18 06:11:30;;;;;;;58.13;26.63;;;;;;;;;;5030829;28;21006;-49
2021/01/18 06:14:04;;;;;;;56.42;29.02;;;;;;;;;;5031073;28;20248;-49
2021/01/18 06:16:30;;;;;;;43.33;26.05;;;;;;;;;;5030382;28;20192;-50
2021/01/18 06:19:09;;;;;;;52.30;27.02;;;;;;;;;;5030091;28;20198;-49
2021/01/18 06:21:36;;;;;;;55.53;28.73;;;;;;;;;;5030724;28;20162;-51
2021/01/18 06:24:20;;;;;;;51.83;28.80;;;;;;;;;;5030566;28;20170;-51
2021/01/18 06:26:46;;;;;;;54.58;25.73;;;;;;;;;;5029696;28;20159;-50
2021/01/18 06:29:32;;;;;;;49.70;25.45;;;;;;;;;;5029935;28;20176;-49
2021/01/18 06:31:58;;;;;;;51.40;27.73;;;;;;;;;;5031082;28;20256;-53
2021/01/18 06:34:28;;;;;;;48.83;26.70;;;;;;;;;;5049562;28;20279;-50
2021/01/18 06:36:55;;;;;;;46.97;27.30;;;;;;;;;;5049679;28;20887;-49
2021/01/18 06:39:24;;;;;;;53.03;27.33;;;;;;;;;;5049874;28;20172;-49
2021/01/18 06:41:54;;;;;;;52.40;27.02;;;;;;;;;;5049909;28;20213;-50
2021/01/18 06:44:32;;;;;;;49.50;29.23;;;;;;;;;;5049610;28;20565;-51
2021/01/18 06:46:58;;;;;;;58.17;26.85;;;;;;;;;;5049662;28;20164;-50
2021/01/18 06:49:24;;;;;;;55.07;26.87;;;;;;;;;;5049576;28;20647;-51
2021/01/18 06:51:52;;;;;;;61.95;28.08;;;;;;;;;;5049789;28;20403;-49
2021/01/18 06:54:20;;;;;;;53.40;26.13;;;;;;;;;;5049659;28;20201;-51
2021/01/18 06:57:00;;;;;;;55.70;27.27;;;;;;;;;;5049095;28;20167;-49
2021/01/18 06:59:45;;;;;;;44.28;23.00;;;;;;;;;;5049431;28;20168;-49
2021/01/18 07:02:14;;;;;;;59.67;24.17;;;;;;;;;;5048356;28;20222;-49
2021/01/18 07:04:47;;;;;;;56.85;26.33;;;;;;;;;;5049257;28;20200;-52
2021/01/18 07:07:26;;;;;;;47.65;25.23;;;;;;;;;;5048899;28;20173;-49
2021/01/18 07:09:55;;;;;;;51.53;24.85;;;;;;;;;;5049229;28;20187;-49
2021/01/18 07:12:23;;;;;;;65.05;27.77;;;;;;;;;;5049390;28;20179;-49
2021/01/18 07:14:55;;;;;;;52.15;27.20;;;;;;;;;;5049107;28;20205;-49
2021/01/18 07:17:25;;;;;;;53.35;26.70;;;;;;;;;;5048818;28;20172;-49
2021/01/18 07:19:58;;;;;;;49.13;25.17;;;;;;;;;;5049183;28;20169;-49
2021/01/18 07:22:23;;;;;;;52.33;25.80;;;;;;;;;;5049000;28;20347;-50
2021/01/18 07:24:54;;;;;;;52.70;24.90;;;;;;;;;;5049128;28;20658;-49
2021/01/18 07:27:24;;;;;;;54.35;27.05;;;;;;;;;;5048748;28;20876;-49
2021/01/18 07:29:50;;;;;;;49.63;25.35;;;;;;;;;;5050261;28;20163;-49
2021/01/18 07:32:16;;;;;;;58.15;26.17;;;;;;;;;;5051482;28;20252;-49
2021/01/18 07:34:43;;;;;;;42.03;24.25;;;;;;;;;;5052103;28;20209;-52
2021/01/18 07:37:10;;;;;;;48.28;25.05;;;;;;;;;;5052094;28;20172;-53
2021/01/18 07:39:40;;;;;;;41.72;22.92;;;;;;;;;;5052150;28;20172;-49
2021/01/18 07:42:08;;;;;;;44.10;23.98;;;;;;;;;;5052449;28;20197;-49
2021/01/18 07:44:44;;;;;;;54.28;24.23;;;;;;;;;;5052177;28;20201;-49
2021/01/18 07:47:11;;;;;;;47.00;24.00;;;;;;;;;;5052425;28;20165;-49
2021/01/18 07:49:38;;;;;;;53.88;24.77;;;;;;;;;;5052227;28;20165;-53
2021/01/18 07:52:23;;;;;;;45.80;23.15;;;;;;;;;;5052365;28;20620;-49
2021/01/18 07:54:49;;;;;;;64.20;24.87;;;;;;;;;;5032971;28;556504;-49
2021/01/18 07:57:28;;;;;;;50.92;21.65;;;;;;;;;;5053041;28;20630;-54
2021/01/18 08:00:13;;;;;;;37.53;20.38;;;;;;;;;;5053231;28;20166;-49
2021/01/18 08:02:39;;;;;;;36.10;19.83;;;;;;;;;;5052374;28;20231;-49
2021/01/18 08:05:20;;;;;;;35.40;18.73;;;;;;;;;;5053038;28;20210;-49
2021/01/18 08:08:00;;;;;;;39.05;19.00;;;;;;;;;;5053038;28;20492;-50
2021/01/18 08:10:46;;;;;;;38.17;19.08;;;;;;;;;;5053077;28;20651;-50
2021/01/18 08:13:31;;;;;;;36.35;18.02;;;;;;;;;;5052905;28;20580;-50
2021/01/18 08:15:58;;;;;;;32.97;16.58;;;;;;;;;;5052620;28;20205;-49
2021/01/18 08:18:30;;;;;;;35.35;15.93;;;;;;;;;;5052768;28;20178;-49
2021/01/18 08:20:56;;;;;;;33.75;17.08;;;;;;;;;;5052691;28;20188;-52
2021/01/18 08:23:42;;;;;;;29.80;16.57;;;;;;;;;;5052681;28;20248;-52
2021/01/18 08:26:08;;;;;;;31.63;15.73;;;;;;;;;;5052531;28;20430;-49
2021/01/18 08:28:35;;;;;;;35.90;15.95;;;;;;;;;;5052551;28;20400;-50
2021/01/18 08:31:01;;;;;;;31.48;14.48;;;;;;;;;;5056235;28;20177;-49
2021/01/18 08:33:27;;;;;;;37.72;16.80;;;;;;;;;;5052379;28;20198;-50
2021/01/18 08:35:55;;;;;;;33.10;16.23;;;;;;;;;;5052502;28;20683;-51
2021/01/18 08:38:25;;;;;;;37.08;16.35;;;;;;;;;;5052379;28;20420;-49
2021/01/18 08:40:52;;;;;;;37.40;18.13;;;;;;;;;;5051711;28;20178;-49
2021/01/18 08:43:19;;;;;;;35.92;18.23;;;;;;;;;;5052156;28;20159;-49
2021/01/18 08:45:55;;;;;;;28.13;15.38;;;;;;;;;;5050136;28;20196;-49
2021/01/18 08:48:22;;;;;;;29.05;17.27;;;;;;;;;;5050557;28;20603;-50
2021/01/18 08:50:52;;;;;;;54.20;18.42;;;;;;;;;;5051554;28;20260;-52
2021/01/18 08:53:32;;;;;;;39.72;17.02;;;;;;;;;;5051780;28;20181;-49
2021/01/18 08:56:05;;;;;;;29.77;14.40;;;;;;;;;;5051486;28;20200;-50
2021/01/18 08:58:38;;;;;;;28.30;15.95;;;;;;;;;;5051979;28;20588;-52
2021/01/18 09:01:06;;;;;;;35.50;15.45;;;;;;;;;;5051914;28;20187;-51
2021/01/18 09:03:32;;;;;;;27.40;15.93;;;;;;;;;;5051130;28;20176;-52
2021/01/18 09:05:59;;;;;;;30.17;15.45;;;;;;;;;;5051469;28;20705;-49
2021/01/18 09:08:25;;;;;;;25.10;13.95;;;;;;;;;;5051964;28;20217;-49
2021/01/18 09:10:55;;;;;;;33.42;14.20;;;;;;;;;;5051780;28;20167;-50
2021/01/18 09:13:22;;;;;;;29.70;13.23;;;;;;;;;;5051808;28;20269;-52
2021/01/18 09:15:48;;;;;;;28.92;14.07;;;;;;;;;;5051375;28;20233;-49
2021/01/18 09:18:14;;;;;;;28.75;15.57;;;;;;;;;;5051562;28;20169;-49
2021/01/18 09:20:41;;;;;;;32.15;12.30;;;;;;;;;;5051588;28;20167;-49
2021/01/18 09:23:08;;;;;;;29.70;13.13;;;;;;;;;;5051517;28;20293;-52
2021/01/18 09:25:34;;;;;;;32.75;12.65;;;;;;;;;;5051146;28;20564;-50
2021/01/18 09:28:04;;;;;;;33.55;12.82;;;;;;;;;;5051437;28;20189;-49
2021/01/18 09:30:30;;;;;;;23.75;12.00;;;;;;;;;;5051491;28;20666;-49
2021/01/18 09:32:56;;;;;;;35.03;14.93;;;;;;;;;;5050513;28;20173;-51
2021/01/18 09:35:22;;;;;;;29.88;14.70;;;;;;;;;;5050909;28;20471;-50
2021/01/18 09:37:50;;;;;;;44.40;15.85;;;;;;;;;;5051386;28;20538;-49
2021/01/18 09:40:16;;;;;;;32.58;15.43;;;;;;;;;;5051188;28;20601;-54
2021/01/18 09:42:46;;;;;;;34.83;14.27;;;;;;;;;;5051273;28;20196;-50
2021/01/18 09:45:12;;;;;;;28.65;15.40;;;;;;;;;;5051043;28;20199;-51
2021/01/18 09:47:38;;;;;;;30.92;15.50;;;;;;;;;;5051153;28;20220;-50
2021/01/18 09:50:15;;;;;;;31.48;16.42;;;;;;;;;;5051108;28;20166;-52
2021/01/18 09:52:51;;;;;;;28.70;16.30;;;;;;;;;;5051098;28;20178;-49
2021/01/18 09:55:28;;;;;;;26.45;14.93;;;;;;;;;;5050577;28;20205;-49
2021/01/18 09:57:59;;;;;;;26.25;15.07;;;;;;;;;;5051248;28;20660;-49
2021/01/18 10:00:27;;;;;;;33.92;15.80;;;;;;;;;;5050996;28;20182;-50
2021/01/18 10:02:54;;;;;;;36.42;15.65;;;;;;;;;;5049666;28;20178;-50
2021/01/18 10:05:25;;;;;;;28.98;14.85;;;;;;;;;;5050670;28;20194;-49
2021/01/18 10:07:53;;;;;;;27.63;16.05;;;;;;;;;;5050716;28;20199;-52
2021/01/18 10:10:19;;;;;;;37.25;16.60;;;;;;;;;;5050875;28;20195;-49
2021/01/18 10:12:55;;;;;;;29.38;14.55;;;;;;;;;;5049400;28;20190;-49
2021/01/18 10:15:28;;;;;;;31.13;14.02;;;;;;;;;;5050344;28;20206;-53
2021/01/18 10:17:54;;;;;;;30.90;15.35;;;;;;;;;;5050590;28;20167;-50
2021/01/18 10:20:22;;;;;;;32.83;15.48;;;;;;;;;;5050737;28;20164;-52
2021/01/18 10:22:48;;;;;;;28.80;13.88;;;;;;;;;;5050588;28;20165;-49
2021/01/18 10:25:15;;;;;;;30.77;14.50;;;;;;;;;;5050496;28;20202;-55
2021/01/18 10:27:52;;;;;;;30.17;14.35;;;;;;;;;;5050585;28;20202;-49
2021/01/18 10:30:22;;;;;;;27.55;14.00;;;;;;;;;;5050421;28;20526;-53
2021/01/18 10:32:49;;;;;;;27.48;12.98;;;;;;;;;;5052846;28;20255;-53
2021/01/18 10:35:21;;;;;;;20.75;12.65;;;;;;;;;;5047655;28;20206;-54
2021/01/18 10:37:47;;;;;;;22.90;13.55;;;;;;;;;;5050560;28;20535;-50
2021/01/18 10:40:14;;;;;;;27.10;13.27;;;;;;;;;;5050350;28;20175;-51
2021/01/18 10:42:53;;;;;;;27.60;12.57;;;;;;;;;;5050394;28;20399;-50
2021/01/18 10:45:26;;;;;;;25.38;12.15;;;;;;;;;;5049863;28;20551;-53
2021/01/18 10:48:01;;;;;;;21.65;12.60;;;;;;;;;;5050510;28;20253;-49
2021/01/18 10:50:30;;;;;;;29.40;14.10;;;;;;;;;;5050238;28;20167;-49
2021/01/18 10:53:09;;;;;;;29.77;14.75;;;;;;;;;;5050250;28;20634;-52
2021/01/18 10:55:36;;;;;;;29.92;12.95;;;;;;;;;;5049782;28;20606;-54
2021/01/18 10:58:02;;;;;;;27.75;12.60;;;;;;;;;;5051022;28;20175;-52
2021/01/18 11:00:29;;;;;;;28.88;14.70;;;;;;;;;;5050401;28;20164;-53
2021/01/18 11:03:02;;;;;;;26.85;12.15;;;;;;;;;;5050643;28;20263;-50
2021/01/18 11:05:38;;;;;;;29.33;12.93;;;;;;;;;;5052570;28;20257;-52
2021/01/18 11:08:08;;;;;;;22.55;11.10;;;;;;;;;;5053036;28;20673;-52
2021/01/18 11:10:42;;;;;;;32.35;13.05;;;;;;;;;;5053680;28;20167;-52
2021/01/18 11:13:10;;;;;;;20.88;11.40;;;;;;;;;;5053967;28;20178;-52
2021/01/18 11:15:40;;;;;;;23.05;11.60;;;;;;;;;;5053688;28;20220;-52
2021/01/18 11:18:07;;;;;;;20.40;11.93;;;;;;;;;;5054371;28;20699;-52
2021/01/18 11:20:33;;;;;;;21.05;10.95;;;;;;;;;;5053946;28;20223;-50
2021/01/18 11:22:59;;;;;;;25.75;11.57;;;;;;;;;;5053959;28;20171;-50
2021/01/18 11:25:27;;;;;;;24.98;10.10;;;;;;;;;;5053401;28;20202;-50
2021/01/18 11:27:53;;;;;;;21.85;9.95;;;;;;;;;;5053709;28;20163;-50
2021/01/18 11:30:19;;;;;;;20.83;8.37;;;;;;;;;;5053561;28;20179;-51
2021/01/18 11:32:45;;;;;;;18.30;10.03;;;;;;;;;;5053711;28;20620;-50
2021/01/18 11:35:12;;;;;;;13.43;8.70;;;;;;;;;;5052761;28;20523;-50
2021/01/18 11:37:38;;;;;;;16.67;8.35;;;;;;;;;;5053682;28;20434;-49
2021/01/18 11:40:09;;;;;;;21.38;8.90;;;;;;;;;;5053924;28;20537;-51
2021/01/18 11:42:35;;;;;;;14.10;7.40;;;;;;;;;;5053246;28;20644;-52
2021/01/18 11:45:01;;;;;;;13.70;7.80;;;;;;;;;;5053239;28;20193;-53
2021/01/18 11:47:38;;;;;;;15.68;7.28;;;;;;;;;;5053053;28;20407;-50
2021/01/18 11:50:05;;;;;;;15.90;7.05;;;;;;;;;;5053454;28;20171;-51
2021/01/18 11:52:31;;;;;;;12.63;6.15;;;;;;;;;;5053327;28;20179;-50
2021/01/18 11:54:57;;;;;;;12.32;7.30;;;;;;;;;;5052772;28;20209;-51
2021/01/18 11:57:23;;;;;;;14.30;7.77;;;;;;;;;;5052886;28;20547;-52
2021/01/18 11:59:49;;;;;;;19.03;7.17;;;;;;;;;;5052936;28;20506;-52
2021/01/18 12:02:19;;;;;;;16.83;7.90;;;;;;;;;;5053153;28;20401;-51
2021/01/18 12:04:45;;;;;;;17.35;7.93;;;;;;;;;;5052282;28;20441;-52
2021/01/18 12:07:11;;;;;;;15.95;7.55;;;;;;;;;;5052669;28;20746;-50
2021/01/18 12:09:37;;;;;;;12.68;6.82;;;;;;;;;;5052936;28;20171;-52
2021/01/18 12:12:04;;;;;;;20.83;7.85;;;;;;;;;;5052643;28;20162;-52
2021/01/18 12:14:30;;;;;;;20.92;7.40;;;;;;;;;;5052755;28;20182;-52
2021/01/18 12:17:00;;;;;;;15.17;5.93;;;;;;;;;;5051084;28;20253;-52
2021/01/18 12:19:26;;;;;;;13.60;6.20;;;;;;;;;;5052792;28;20464;-51
2021/01/18 12:21:53;;;;;;;14.03;6.43;;;;;;;;;;5052512;28;20167;-52
2021/01/18 12:24:19;;;;;;;13.45;6.45;;;;;;;;;;5052672;28;20459;-50
2021/01/18 12:26:45;;;;;;;16.83;6.83;;;;;;;;;;5052342;28;20174;-50
2021/01/18 12:29:11;;;;;;;11.50;5.57;;;;;;;;;;5052419;28;20410;-50
2021/01/18 12:31:37;;;;;;;14.43;6.07;;;;;;;;;;5052517;28;20781;-50
2021/01/18 12:34:04;;;;;;;11.63;6.10;;;;;;;;;;5051240;28;20766;-51
2021/01/18 12:36:30;;;;;;;10.25;6.40;;;;;;;;;;5052196;28;20832;-51
2021/01/18 12:38:56;;;;;;;18.05;6.40;;;;;;;;;;5052102;28;20628;-51
2021/01/18 12:41:22;;;;;;;12.83;5.60;;;;;;;;;;5052166;28;20174;-51
2021/01/18 12:43:48;;;;;;;17.57;5.43;;;;;;;;;;5052082;28;20407;-52
2021/01/18 12:46:17;;;;;;;8.23;4.73;;;;;;;;;;5052142;28;20406;-50
2021/01/18 12:48:43;;;;;;;13.38;5.60;;;;;;;;;;5052304;28;20909;-52
2021/01/18 12:51:13;;;;;;;11.57;5.17;;;;;;;;;;5051870;28;20183;-50
2021/01/18 12:53:45;;;;;;;8.38;4.95;;;;;;;;;;5052062;28;20402;-50
2021/01/18 12:56:23;;;;;;;11.85;5.82;;;;;;;;;;5051548;28;20229;-50
2021/01/18 12:58:49;;;;;;;17.85;5.00;;;;;;;;;;5051971;28;20167;-50
2021/01/18 13:01:15;;;;;;;23.37;5.87;;;;;;;;;;5051039;28;20298;-50
2021/01/18 13:03:41;;;;;;;13.23;5.50;;;;;;;;;;5051840;28;20408;-50
2021/01/18 13:06:07;;;;;;;11.48;5.22;;;;;;;;;;5051552;28;20206;-50
2021/01/18 13:08:33;;;;;;;21.20;6.23;;;;;;;;;;5051640;28;20167;-51
2021/01/18 13:11:00;;;;;;;10.70;5.40;;;;;;;;;;5051834;28;20438;-50
2021/01/18 13:13:26;;;;;;;14.23;6.25;;;;;;;;;;5051598;28;20857;-52
2021/01/18 13:15:52;;;;;;;13.23;5.07;;;;;;;;;;5051418;28;20233;-50
2021/01/18 13:18:18;;;;;;;8.37;4.97;;;;;;;;;;5051627;28;20739;-51
2021/01/18 13:20:45;;;;;;;12.87;5.50;;;;;;;;;;5051413;28;20480;-49
2021/01/18 13:23:11;;;;;;;16.08;6.18;;;;;;;;;;5051518;28;20417;-51
2021/01/18 13:25:37;;;;;;;17.53;5.80;;;;;;;;;;5049850;28;20281;-50
2021/01/18 13:28:03;;;;;;;17.10;6.13;;;;;;;;;;5050995;28;20443;-52
2021/01/18 13:30:29;;;;;;;15.13;5.75;;;;;;;;;;5050393;28;20404;-50
2021/01/18 13:32:56;;;;;;;10.70;5.80;;;;;;;;;;5051283;28;20187;-51
2021/01/18 13:35:22;;;;;;;16.33;5.50;;;;;;;;;;5050908;28;20550;-50
2021/01/18 13:37:48;;;;;;;14.83;6.10;;;;;;;;;;5051106;28;20587;-50
2021/01/18 13:40:17;;;;;;;10.60;5.33;;;;;;;;;;5051263;28;20399;-49
2021/01/18 13:42:43;;;;;;;10.15;4.88;;;;;;;;;;5051100;28;20484;-50
2021/01/18 13:45:10;;;;;;;22.30;5.70;;;;;;;;;;5052612;28;20202;-52
2021/01/18 13:47:36;;;;;;;17.33;6.07;;;;;;;;;;5051061;28;20644;-51
2021/01/18 13:50:03;;;;;;;14.77;6.90;;;;;;;;;;5051137;28;20309;-51
2021/01/18 13:52:28;;;;;;;14.85;4.60;;;;;;;;;;5051153;28;20258;-52
2021/01/18 13:54:56;;;;;;;16.30;5.47;;;;;;;;;;5050659;28;20357;-51
2021/01/18 13:57:22;;;;;;;17.55;5.78;;;;;;;;;;5050645;28;20901;-51
2021/01/18 13:59:48;;;;;;;10.37;4.97;;;;;;;;;;5050828;28;20174;-51
2021/01/18 14:02:14;;;;;;;20.07;5.67;;;;;;;;;;5050125;28;20421;-52
2021/01/18 14:04:40;;;;;;;11.70;4.90;;;;;;;;;;5050578;28;20496;-51
2021/01/18 14:07:06;;;;;;;11.70;5.60;;;;;;;;;;5050583;28;20964;-52
2021/01/18 14:09:32;;;;;;;8.57;4.45;;;;;;;;;;5050789;28;20404;-51
2021/01/18 14:11:58;;;;;;;9.80;4.67;;;;;;;;;;5050641;28;20167;-52
2021/01/18 14:14:24;;;;;;;13.60;5.33;;;;;;;;;;5050760;28;20428;-51
2021/01/18 14:16:50;;;;;;;12.13;4.70;;;;;;;;;;5050364;28;20458;-52
2021/01/18 14:19:16;;;;;;;13.75;5.22;;;;;;;;;;5050537;28;20769;-52
2021/01/18 14:21:42;;;;;;;13.25;4.80;;;;;;;;;;5050501;28;20171;-51
2021/01/18 14:24:08;;;;;;;10.30;4.80;;;;;;;;;;5050611;28;20213;-51
2021/01/18 14:26:39;;;;;;;9.77;4.40;;;;;;;;;;5050169;28;20398;-52
2021/01/18 14:29:05;;;;;;;12.80;4.47;;;;;;;;;;5050642;28;20229;-51
2021/01/18 14:31:35;;;;;;;17.25;4.70;;;;;;;;;;5049343;28;20525;-50